createdAt,value
2018-02-27T00:01:07.457Z,-5.40
2018-02-27T00:03:33.704Z,-5.40
2018-02-27T00:05:59.911Z,-5.40
2018-02-27T00:08:26.151Z,-5.30
2018-02-27T00:10:52.373Z,-5.20
2018-02-27T00:13:18.583Z,-5.10
2018-02-27T00:15:44.827Z,-5.30
2018-02-27T00:18:11.043Z,-5.20
2018-02-27T00:20:37.256Z,-5.40
2018-02-27T00:23:03.533Z,-5.60
2018-02-27T00:25:29.714Z,-5.60
2018-02-27T00:27:55.917Z,-5.80
2018-02-27T00:30:22.417Z,-5.90
2018-02-27T00:32:48.615Z,-6.00
2018-02-27T00:35:14.823Z,-5.90
2018-02-27T00:37:41.053Z,-6.00
2018-02-27T00:40:07.285Z,-5.90
2018-02-27T00:42:33.486Z,-5.90
2018-02-27T00:44:59.771Z,-5.90
2018-02-27T00:47:25.968Z,-5.80
2018-02-27T00:49:52.187Z,-5.80
2018-02-27T00:52:18.437Z,-5.70
2018-02-27T00:54:44.643Z,-5.70
2018-02-27T00:57:10.892Z,-5.50
2018-02-27T00:59:37.136Z,-5.50
2018-02-27T01:02:03.349Z,-5.60
2018-02-27T01:04:29.536Z,-5.70
2018-02-27T01:06:57.621Z,-5.70
2018-02-27T01:09:23.841Z,-5.70
2018-02-27T01:11:50.055Z,-5.80
2018-02-27T01:14:16.291Z,-5.70
2018-02-27T01:16:42.859Z,-5.50
2018-02-27T01:19:09.082Z,-5.50
2018-02-27T01:21:35.319Z,-5.60
2018-02-27T01:24:01.559Z,-5.50
2018-02-27T01:26:27.789Z,-5.50
2018-02-27T01:28:54.053Z,-5.50
2018-02-27T01:31:20.265Z,-5.50
2018-02-27T01:33:46.507Z,-5.40
2018-02-27T01:36:12.761Z,-5.40
2018-02-27T01:38:38.996Z,-5.40
2018-02-27T01:41:05.216Z,-5.30
2018-02-27T01:43:31.445Z,-5.50
2018-02-27T01:45:57.666Z,-5.70
2018-02-27T01:48:23.904Z,-5.50
2018-02-27T01:51:02.344Z,-5.50
2018-02-27T01:53:28.554Z,-5.80
2018-02-27T01:55:54.754Z,-5.50
2018-02-27T01:58:21.351Z,-5.90
2018-02-27T02:00:47.583Z,-5.90
2018-02-27T02:03:13.789Z,-6.00
2018-02-27T02:05:40.046Z,-5.90
2018-02-27T02:08:06.262Z,-5.70
2018-02-27T02:10:32.446Z,-5.80
2018-02-27T02:12:58.715Z,-5.70
2018-02-27T02:15:24.932Z,-5.80
2018-02-27T02:17:51.185Z,-5.80
2018-02-27T02:20:17.442Z,-6.00
2018-02-27T02:22:44.046Z,-6.10
2018-02-27T02:25:10.239Z,-6.10
2018-02-27T02:27:36.471Z,-6.20
2018-02-27T02:30:02.711Z,-6.20
2018-02-27T02:32:28.901Z,-6.10
2018-02-27T02:34:55.493Z,-6.10
2018-02-27T02:37:21.742Z,-6.10
2018-02-27T02:39:47.966Z,-6.10
2018-02-27T02:42:29.452Z,-6.00
2018-02-27T02:44:55.655Z,-6.10
2018-02-27T02:47:21.897Z,-6.10
2018-02-27T02:49:48.132Z,-6.10
2018-02-27T02:52:14.336Z,-6.00
2018-02-27T02:54:40.580Z,-5.90
2018-02-27T02:57:06.847Z,-5.90
2018-02-27T02:59:33.392Z,-6.00
2018-02-27T03:01:59.601Z,-6.00
2018-02-27T03:04:26.729Z,-6.40
2018-02-27T03:06:52.956Z,-6.40
2018-02-27T03:09:19.178Z,-6.40
2018-02-27T03:11:45.446Z,-6.60
2018-02-27T03:14:11.683Z,-6.70
2018-02-27T03:16:37.907Z,-6.70
2018-02-27T03:19:04.172Z,-6.70
2018-02-27T03:21:30.395Z,-6.60
2018-02-27T03:23:56.592Z,-6.50
2018-02-27T03:26:22.853Z,-6.60
2018-02-27T03:28:49.081Z,-6.50
2018-02-27T03:31:15.288Z,-6.60
2018-02-27T03:33:41.521Z,-6.40
2018-02-27T03:36:07.747Z,-6.40
2018-02-27T03:38:33.994Z,-6.40
2018-02-27T03:41:00.196Z,-6.30
2018-02-27T03:43:26.433Z,-6.40
2018-02-27T03:45:52.683Z,-6.50
2018-02-27T03:48:18.917Z,-6.40
2018-02-27T03:50:45.409Z,-6.30
2018-02-27T03:53:11.620Z,-6.20
2018-02-27T03:55:37.868Z,-6.30
2018-02-27T03:58:04.071Z,-6.40
2018-02-27T04:00:30.636Z,-6.50
2018-02-27T04:02:56.894Z,-6.50
2018-02-27T04:05:23.130Z,-6.60
2018-02-27T04:07:49.344Z,-6.60
2018-02-27T04:10:15.519Z,-6.60
2018-02-27T04:12:42.554Z,-6.40
2018-02-27T04:15:09.132Z,-6.50
2018-02-27T04:17:35.344Z,-6.50
2018-02-27T04:20:01.599Z,-6.40
2018-02-27T04:22:27.818Z,-6.30
2018-02-27T04:24:54.055Z,-6.30
2018-02-27T04:27:20.291Z,-6.30
2018-02-27T04:29:46.503Z,-6.50
2018-02-27T04:32:12.735Z,-6.70
2018-02-27T04:34:38.980Z,-6.90
2018-02-27T04:37:05.224Z,-6.90
2018-02-27T04:39:31.451Z,-6.70
2018-02-27T04:41:57.681Z,-6.80
2018-02-27T04:44:23.866Z,-6.80
2018-02-27T04:46:50.127Z,-6.90
2018-02-27T04:49:16.324Z,-6.90
2018-02-27T04:51:42.560Z,-6.80
2018-02-27T04:54:08.746Z,-6.80
2018-02-27T04:56:34.958Z,-6.90
2018-02-27T04:59:02.156Z,-7.00
2018-02-27T05:01:28.378Z,-7.00
2018-02-27T05:03:54.614Z,-6.80
2018-02-27T05:06:20.837Z,-6.90
2018-02-27T05:08:47.071Z,-7.10
2018-02-27T05:11:13.285Z,-7.10
2018-02-27T05:13:39.511Z,-7.20
2018-02-27T05:16:05.729Z,-7.20
2018-02-27T05:18:31.967Z,-7.20
2018-02-27T05:20:58.200Z,-7.10
2018-02-27T05:23:24.406Z,-7.00
2018-02-27T05:25:51.010Z,-7.10
2018-02-27T05:28:17.224Z,-7.10
2018-02-27T05:30:43.412Z,-7.10
2018-02-27T05:33:09.643Z,-7.10
2018-02-27T05:35:35.879Z,-7.10
2018-02-27T05:38:02.086Z,-7.10
2018-02-27T05:40:28.303Z,-7.10
2018-02-27T05:42:54.504Z,-7.20
2018-02-27T05:45:20.725Z,-7.30
2018-02-27T05:47:46.948Z,-7.40
2018-02-27T05:50:13.159Z,-7.30
2018-02-27T05:52:39.426Z,-7.40
2018-02-27T05:55:05.616Z,-7.30
2018-02-27T05:57:31.848Z,-7.40
2018-02-27T05:59:58.077Z,-7.40
2018-02-27T06:02:24.282Z,-7.20
2018-02-27T06:04:50.513Z,-7.20
2018-02-27T06:07:16.731Z,-7.20
2018-02-27T06:09:42.996Z,-7.00
2018-02-27T06:12:09.211Z,-6.90
2018-02-27T06:14:35.437Z,-6.80
2018-02-27T06:17:01.655Z,-6.80
2018-02-27T06:19:27.855Z,-6.80
2018-02-27T06:21:54.440Z,-6.80
2018-02-27T06:24:20.686Z,-6.80
2018-02-27T06:26:46.896Z,-7.00
2018-02-27T06:29:13.127Z,-6.90
2018-02-27T06:31:39.315Z,-7.10
2018-02-27T06:34:05.547Z,-7.00
2018-02-27T06:36:31.770Z,-7.00
2018-02-27T06:38:57.968Z,-6.80
2018-02-27T06:41:24.165Z,-6.90
2018-02-27T06:43:50.410Z,-7.00
2018-02-27T06:46:16.612Z,-7.10
2018-02-27T06:48:42.794Z,-7.20
2018-02-27T06:51:09.813Z,-7.10
2018-02-27T06:53:36.044Z,-7.10
2018-02-27T06:56:02.260Z,-7.00
2018-02-27T06:58:28.476Z,-7.10
2018-02-27T07:00:54.681Z,-7.10
2018-02-27T07:03:20.925Z,-7.10
2018-02-27T07:05:47.419Z,-7.10
2018-02-27T07:08:13.599Z,-7.10
2018-02-27T07:10:39.803Z,-6.90
2018-02-27T07:13:06.082Z,-6.90
2018-02-27T07:15:32.635Z,-6.60
2018-02-27T07:17:58.852Z,-6.60
2018-02-27T07:20:25.340Z,-6.60
2018-02-27T07:22:51.580Z,-6.70
2018-02-27T07:25:17.803Z,-6.50
2018-02-27T07:27:44.031Z,-6.40
2018-02-27T07:30:10.282Z,-6.50
2018-02-27T07:32:36.506Z,-6.20
2018-02-27T07:35:02.734Z,-6.10
2018-02-27T07:40:01.821Z,-5.60
2018-02-27T07:42:28.072Z,-5.40
2018-02-27T07:44:54.347Z,-5.40
2018-02-27T07:47:20.557Z,-5.30
2018-02-27T07:49:47.273Z,-5.30
2018-02-27T07:52:13.511Z,-5.20
2018-02-27T07:54:40.154Z,-5.20
2018-02-27T07:57:06.761Z,-5.20
2018-02-27T07:59:32.977Z,-5.20
2018-02-27T08:01:59.245Z,-5.00
2018-02-27T08:04:25.857Z,-4.80
2018-02-27T08:06:52.067Z,-4.80
2018-02-27T08:09:18.332Z,-4.80
2018-02-27T08:11:44.565Z,-4.60
2018-02-27T08:14:11.613Z,-4.70
2018-02-27T08:16:38.205Z,-4.60
2018-02-27T08:19:04.413Z,-4.60
2018-02-27T08:21:30.639Z,-4.60
2018-02-27T08:23:56.868Z,-4.50
2018-02-27T08:26:23.096Z,-4.50
2018-02-27T08:28:49.324Z,-4.40
2018-02-27T08:31:15.521Z,-4.40
2018-02-27T08:33:42.137Z,-4.30
2018-02-27T08:36:08.350Z,-4.30
2018-02-27T08:38:34.575Z,-4.50
2018-02-27T08:41:00.779Z,-4.40
2018-02-27T08:43:27.017Z,-4.20
2018-02-27T08:45:53.253Z,-3.90
2018-02-27T08:48:19.443Z,-3.70
2018-02-27T08:50:45.684Z,-3.70
2018-02-27T08:53:12.277Z,-3.50
2018-02-27T08:55:38.537Z,-3.40
2018-02-27T08:58:04.788Z,-3.20
2018-02-27T09:00:31.286Z,-3.20
2018-02-27T09:02:57.860Z,-3.10
2018-02-27T09:05:24.065Z,-3.20
2018-02-27T09:07:50.286Z,-3.20
2018-02-27T09:10:16.487Z,-3.10
2018-02-27T09:12:43.047Z,-3.10
2018-02-27T09:15:09.272Z,-3.10
2018-02-27T09:17:35.829Z,-2.70
2018-02-27T09:20:02.030Z,-2.70
2018-02-27T09:22:28.617Z,-2.50
2018-02-27T09:24:54.889Z,-2.50
2018-02-27T09:27:21.460Z,-2.70
2018-02-27T09:29:47.696Z,-2.70
2018-02-27T09:32:13.932Z,-2.60
2018-02-27T09:34:40.115Z,-2.50
2018-02-27T09:37:06.310Z,-2.40
2018-02-27T09:39:32.536Z,-2.30
2018-02-27T09:41:58.769Z,-2.10
2018-02-27T09:44:25.295Z,-1.90
2018-02-27T09:46:51.489Z,-2.40
2018-02-27T09:49:17.698Z,-2.40
2018-02-27T09:51:43.974Z,-2.00
2018-02-27T09:54:10.177Z,-1.90
2018-02-27T09:56:36.422Z,-2.00
2018-02-27T09:59:02.634Z,-1.60
2018-02-27T10:01:28.980Z,-1.10
2018-02-27T10:03:55.198Z,-1.30
2018-02-27T10:06:21.425Z,-1.40
2018-02-27T10:08:47.622Z,-1.40
2018-02-27T10:11:13.821Z,-1.00
2018-02-27T10:13:40.125Z,-0.70
2018-02-27T10:16:06.310Z,-0.40
2018-02-27T10:18:32.515Z,-0.30
2018-02-27T10:20:59.179Z,0.40
2018-02-27T10:23:25.434Z,0.50
2018-02-27T10:25:51.670Z,1.00
2018-02-27T10:28:17.913Z,1.40
2018-02-27T10:30:44.128Z,2.00
2018-02-27T10:33:10.387Z,2.70
2018-02-27T10:35:36.887Z,3.50
2018-02-27T10:38:03.088Z,4.20
2018-02-27T10:40:29.324Z,4.80
2018-02-27T10:42:55.566Z,5.70
2018-02-27T10:45:21.806Z,6.20
2018-02-27T10:47:48.031Z,7.20
2018-02-27T10:50:14.247Z,8.30
2018-02-27T10:52:40.475Z,9.30
2018-02-27T10:55:06.706Z,10.20
2018-02-27T10:57:32.996Z,10.10
2018-02-27T10:59:59.260Z,8.30
2018-02-27T11:02:25.539Z,7.90
2018-02-27T11:04:51.738Z,8.20
2018-02-27T11:07:17.998Z,9.40
2018-02-27T11:09:44.211Z,10.90
2018-02-27T11:12:10.420Z,12.00
2018-02-27T11:14:36.665Z,13.60
2018-02-27T11:17:02.852Z,12.90
2018-02-27T11:19:29.083Z,12.30
2018-02-27T11:21:55.315Z,11.70
2018-02-27T11:24:21.530Z,12.70
2018-02-27T11:26:47.726Z,13.50
2018-02-27T11:29:14.297Z,10.20
2018-02-27T11:31:40.536Z,10.20
2018-02-27T11:34:06.779Z,8.30
2018-02-27T11:36:32.972Z,8.40
2018-02-27T11:38:59.486Z,8.30
2018-02-27T11:41:26.472Z,9.50
2018-02-27T11:43:52.686Z,10.70
2018-02-27T11:46:18.927Z,9.90
2018-02-27T11:48:45.137Z,10.40
2018-02-27T11:51:11.343Z,11.90
2018-02-27T11:53:37.558Z,11.80
2018-02-27T11:56:03.806Z,9.70
2018-02-27T11:58:30.041Z,9.90
2018-02-27T12:00:56.272Z,11.90
2018-02-27T12:03:22.951Z,13.70
2018-02-27T12:05:49.776Z,15.10
2018-02-27T12:08:16.040Z,13.80
2018-02-27T12:10:43.168Z,12.10
2018-02-27T12:13:09.977Z,11.80
2018-02-27T12:15:36.171Z,12.80
2018-02-27T12:18:03.188Z,11.00
2018-02-27T12:20:29.397Z,11.00
2018-02-27T12:22:55.615Z,11.10
2018-02-27T12:25:21.863Z,10.10
2018-02-27T12:27:48.089Z,8.60
2018-02-27T12:30:14.331Z,9.00
2018-02-27T12:32:40.963Z,11.00
2018-02-27T12:35:07.173Z,12.80
2018-02-27T12:37:34.084Z,12.90
2018-02-27T12:40:00.394Z,13.70
2018-02-27T12:42:27.069Z,15.10
2018-02-27T12:44:53.296Z,15.10
2018-02-27T12:47:19.837Z,14.90
2018-02-27T12:49:46.107Z,13.40
2018-02-27T12:52:12.327Z,11.30
2018-02-27T12:54:38.596Z,8.90
2018-02-27T12:57:04.865Z,7.20
2018-02-27T12:59:31.124Z,7.30
2018-02-27T13:01:57.410Z,7.40
2018-02-27T13:04:23.605Z,7.40
2018-02-27T13:06:49.840Z,8.60
2018-02-27T13:09:16.093Z,9.60
2018-02-27T13:11:42.375Z,9.80
2018-02-27T13:14:08.585Z,10.00
2018-02-27T13:16:34.867Z,10.30
2018-02-27T13:19:01.094Z,9.60
2018-02-27T13:21:27.340Z,8.90
2018-02-27T13:23:53.620Z,8.50
2018-02-27T13:26:20.271Z,7.80
2018-02-27T13:28:46.502Z,7.70
2018-02-27T13:31:19.648Z,7.30
2018-02-27T13:33:45.930Z,6.70
2018-02-27T13:36:12.346Z,6.30
2018-02-27T13:38:38.566Z,5.50
2018-02-27T13:41:05.193Z,4.30
2018-02-27T13:43:31.797Z,4.30
2018-02-27T13:45:58.008Z,4.30
2018-02-27T13:48:24.499Z,3.90
2018-02-27T13:50:51.118Z,4.20
2018-02-27T13:53:18.207Z,4.30
2018-02-27T13:55:44.478Z,4.20
2018-02-27T13:58:10.704Z,4.20
2018-02-27T14:00:36.915Z,4.30
2018-02-27T14:03:03.203Z,4.20
2018-02-27T14:05:29.826Z,3.80
2018-02-27T14:07:56.050Z,3.80
2018-02-27T14:10:22.298Z,3.70
2018-02-27T14:12:48.942Z,3.00
2018-02-27T14:15:15.597Z,2.90
2018-02-27T14:17:41.810Z,2.90
2018-02-27T14:20:08.441Z,2.20
2018-02-27T14:22:35.073Z,2.50
2018-02-27T14:25:01.745Z,2.70
2018-02-27T14:27:28.008Z,2.70
2018-02-27T14:29:54.255Z,2.70
2018-02-27T14:32:20.487Z,2.70
2018-02-27T14:34:46.708Z,2.50
2018-02-27T14:37:12.964Z,2.70
2018-02-27T14:39:39.733Z,2.50
2018-02-27T14:42:05.961Z,2.20
2018-02-27T14:44:32.212Z,2.00
2018-02-27T14:46:58.448Z,2.10
2018-02-27T14:49:25.484Z,1.80
2018-02-27T14:51:51.734Z,1.60
2018-02-27T14:54:17.969Z,1.70
2018-02-27T14:56:44.182Z,1.10
2018-02-27T14:59:10.440Z,1.10
2018-02-27T15:01:36.732Z,1.10
2018-02-27T15:04:02.970Z,1.00
2018-02-27T15:06:29.218Z,1.20
2018-02-27T15:08:55.820Z,0.80
2018-02-27T15:11:22.078Z,0.80
2018-02-27T15:13:48.336Z,0.40
2018-02-27T15:16:14.609Z,0.30
2018-02-27T15:18:40.825Z,0.10
2018-02-27T15:21:07.088Z,0.00
2018-02-27T15:23:33.316Z,0.00
2018-02-27T15:25:59.593Z,-0.10
2018-02-27T15:28:25.840Z,-0.20
2018-02-27T15:30:52.103Z,-0.20
2018-02-27T15:33:18.341Z,-0.20
2018-02-27T15:35:44.957Z,-0.50
2018-02-27T15:38:11.205Z,-0.50
2018-02-27T15:40:37.799Z,-0.70
2018-02-27T15:43:04.084Z,-0.70
2018-02-27T15:45:30.374Z,-0.60
2018-02-27T15:47:56.599Z,-0.90
2018-02-27T15:50:22.824Z,-0.90
2018-02-27T15:52:49.125Z,-1.30
2018-02-27T15:55:15.395Z,-1.40
2018-02-27T15:57:41.647Z,-1.80
2018-02-27T16:00:08.297Z,-2.20
2018-02-27T16:02:34.917Z,-2.30
2018-02-27T16:05:01.528Z,-2.20
2018-02-27T16:07:28.172Z,-2.20
2018-02-27T16:09:54.434Z,-2.00
2018-02-27T16:12:21.062Z,-2.20
2018-02-27T16:14:47.695Z,-2.30
2018-02-27T16:17:13.908Z,-2.30
2018-02-27T16:19:40.136Z,-2.30
2018-02-27T16:22:06.720Z,-2.50
2018-02-27T16:24:32.971Z,-2.50
2018-02-27T16:26:59.235Z,-2.50
2018-02-27T16:29:26.012Z,-2.50
2018-02-27T16:31:52.251Z,-2.50
2018-02-27T16:34:18.501Z,-2.70
2018-02-27T16:36:44.776Z,-3.00
2018-02-27T16:39:11.361Z,-3.00
2018-02-27T16:41:37.600Z,-3.10
2018-02-27T16:44:03.880Z,-2.90
2018-02-27T16:46:30.114Z,-3.20
2018-02-27T16:48:56.380Z,-3.40
2018-02-27T16:51:22.615Z,-3.50
2018-02-27T16:53:48.817Z,-3.60
2018-02-27T16:56:15.029Z,-3.50
2018-02-27T16:58:41.250Z,-3.70
2018-02-27T17:01:07.466Z,-3.70
2018-02-27T17:03:34.119Z,-4.00
2018-02-27T17:06:00.370Z,-4.00
2018-02-27T17:08:26.578Z,-4.00
2018-02-27T17:10:53.000Z,-4.00
2018-02-27T17:13:19.511Z,-4.10
2018-02-27T17:15:45.741Z,-4.30
2018-02-27T17:18:11.976Z,-4.30
2018-02-27T17:20:38.231Z,-4.20
2018-02-27T17:23:04.434Z,-4.20
2018-02-27T17:25:31.026Z,-3.90
2018-02-27T17:27:57.266Z,-3.90
2018-02-27T17:30:23.554Z,-4.20
2018-02-27T17:32:49.899Z,-4.30
2018-02-27T17:35:16.163Z,-4.50
2018-02-27T17:37:42.410Z,-4.50
2018-02-27T17:40:08.599Z,-4.60
2018-02-27T17:42:35.518Z,-4.60
2018-02-27T17:45:01.829Z,-4.60
2018-02-27T17:47:28.468Z,-4.80
2018-02-27T17:49:55.096Z,-4.80
2018-02-27T17:52:21.725Z,-4.60
2018-02-27T17:54:48.367Z,-4.40
2018-02-27T17:57:15.015Z,-4.50
2018-02-27T17:59:49.043Z,-4.50
2018-02-27T18:02:15.284Z,-4.50
2018-02-27T18:04:41.568Z,-4.60
2018-02-27T18:07:07.843Z,-4.60
2018-02-27T18:09:34.072Z,-4.50
2018-02-27T18:12:00.337Z,-4.40
2018-02-27T18:14:26.566Z,-4.20
2018-02-27T18:16:52.760Z,-4.20
2018-02-27T18:19:19.032Z,-4.20
2018-02-27T18:21:45.246Z,-4.30
2018-02-27T18:24:11.448Z,-4.30
2018-02-27T18:26:37.714Z,-4.20
2018-02-27T18:29:03.948Z,-4.10
2018-02-27T18:31:30.179Z,-4.00
2018-02-27T18:33:56.839Z,-3.70
2018-02-27T18:36:23.184Z,-3.70
2018-02-27T18:38:49.473Z,-3.90
2018-02-27T18:41:15.812Z,-4.10
2018-02-27T18:43:42.625Z,-4.60
2018-02-27T18:46:08.922Z,-4.60
2018-02-27T18:48:35.535Z,-4.80
2018-02-27T18:51:01.860Z,-5.10
2018-02-27T18:53:28.139Z,-5.20
2018-02-27T18:55:54.460Z,-5.50
2018-02-27T18:58:20.777Z,-5.50
2018-02-27T19:00:47.217Z,-5.70
2018-02-27T19:03:13.593Z,-5.90
2018-02-27T19:05:40.025Z,-5.90
2018-02-27T19:08:06.389Z,-6.00
2018-02-27T19:10:32.728Z,-6.10
2018-02-27T19:12:59.045Z,-6.30
2018-02-27T19:15:25.851Z,-6.30
2018-02-27T19:17:52.246Z,-6.30
2018-02-27T19:20:18.569Z,-6.40
2018-02-27T19:22:44.902Z,-6.40
2018-02-27T19:25:11.253Z,-6.50
2018-02-27T19:27:37.878Z,-6.60
2018-02-27T19:30:04.256Z,-6.70
2018-02-27T19:32:31.038Z,-6.80
2018-02-27T19:34:57.337Z,-6.80
2018-02-27T19:37:24.271Z,-6.80
2018-02-27T19:39:50.626Z,-6.90
2018-02-27T19:42:16.999Z,-6.90
2018-02-27T19:44:43.277Z,-7.00
2018-02-27T19:47:09.621Z,-7.00
2018-02-27T19:49:35.919Z,-7.00
2018-02-27T19:52:02.197Z,-7.00
2018-02-27T19:54:28.480Z,-7.10
2018-02-27T19:56:54.830Z,-7.20
2018-02-27T19:59:21.609Z,-7.20
2018-02-27T20:01:48.911Z,-7.30
2018-02-27T20:04:15.628Z,-7.40
2018-02-27T20:06:42.067Z,-7.40
2018-02-27T20:09:08.353Z,-7.40
2018-02-27T20:11:34.744Z,-7.40
2018-02-27T20:14:01.165Z,-7.50
2018-02-27T20:16:27.419Z,-7.60
2018-02-27T20:18:53.840Z,-7.60
2018-02-27T20:21:21.176Z,-7.70
2018-02-27T20:23:54.149Z,-7.60
2018-02-27T20:26:20.921Z,-7.60
2018-02-27T20:28:53.652Z,-7.60
2018-02-27T20:31:20.082Z,-7.70
2018-02-27T20:33:46.525Z,-7.60
2018-02-27T20:36:12.864Z,-7.60
2018-02-27T20:38:45.352Z,-7.50
2018-02-27T20:41:11.686Z,-7.40
2018-02-27T20:43:38.756Z,-7.40
2018-02-27T20:46:05.157Z,-7.50
2018-02-27T20:48:31.533Z,-7.60
2018-02-27T20:50:57.894Z,-7.60
2018-02-27T20:53:24.249Z,-7.70
2018-02-27T20:55:50.606Z,-7.80
2018-02-27T20:58:17.790Z,-7.90
2018-02-27T21:00:44.131Z,-7.90
2018-02-27T21:03:10.517Z,-8.00
2018-02-27T21:05:37.199Z,-8.10
2018-02-27T21:08:03.682Z,-8.10
2018-02-27T21:10:30.214Z,-8.20
2018-02-27T21:12:56.464Z,-8.30
2018-02-27T21:15:22.804Z,-8.30
2018-02-27T21:17:49.068Z,-8.30
2018-02-27T21:20:15.340Z,-8.30
2018-02-27T21:22:41.591Z,-8.50
2018-02-27T21:25:07.873Z,-8.50
2018-02-27T21:27:34.103Z,-8.50
2018-02-27T21:30:00.362Z,-8.50
2018-02-27T21:32:26.939Z,-8.50
2018-02-27T21:34:53.213Z,-8.50
2018-02-27T21:37:19.812Z,-8.60
2018-02-27T21:39:46.094Z,-8.60
2018-02-27T21:42:12.680Z,-8.60
2018-02-27T21:44:38.994Z,-8.60
2018-02-27T21:47:05.298Z,-8.70
2018-02-27T21:49:31.540Z,-8.80
2018-02-27T21:51:57.739Z,-8.80
2018-02-27T21:54:23.979Z,-8.80
2018-02-27T21:56:50.170Z,-8.80
2018-02-27T21:59:16.423Z,-8.90
2018-02-27T22:01:43.046Z,-9.00
2018-02-27T22:04:09.308Z,-9.00
2018-02-27T22:06:35.600Z,-9.10
2018-02-27T22:09:01.862Z,-9.20
2018-02-27T22:11:28.087Z,-9.30
2018-02-27T22:13:55.112Z,-9.40
2018-02-27T22:16:21.727Z,-9.40
2018-02-27T22:18:47.991Z,-9.50
2018-02-27T22:21:14.239Z,-9.40
2018-02-27T22:23:40.452Z,-9.50
2018-02-27T22:26:07.061Z,-9.60
2018-02-27T22:28:33.261Z,-9.60
2018-02-27T22:30:59.486Z,-9.60
2018-02-27T22:33:26.360Z,-9.50
2018-02-27T22:35:52.610Z,-9.60
2018-02-27T22:38:19.193Z,-9.60
2018-02-27T22:40:45.431Z,-9.60
2018-02-27T22:43:11.611Z,-9.70
2018-02-27T22:45:37.860Z,-9.60
2018-02-27T22:48:04.401Z,-9.40
2018-02-27T22:50:30.598Z,-9.30
2018-02-27T22:52:56.811Z,-9.30
2018-02-27T22:55:23.428Z,-9.10
2018-02-27T22:57:49.658Z,-9.10
2018-02-27T23:00:28.101Z,-9.00
2018-02-27T23:02:54.681Z,-8.90
2018-02-27T23:05:20.899Z,-8.90
2018-02-27T23:07:47.155Z,-8.80
2018-02-27T23:10:13.398Z,-8.80
2018-02-27T23:12:39.931Z,-8.70
2018-02-27T23:15:06.142Z,-8.70
2018-02-27T23:17:32.368Z,-8.70
2018-02-27T23:19:58.583Z,-8.80
2018-02-27T23:22:24.798Z,-8.90
2018-02-27T23:24:56.655Z,-8.90
2018-02-27T23:27:25.075Z,-8.80
2018-02-27T23:29:53.440Z,-8.80
2018-02-27T23:32:21.982Z,-8.80
2018-02-27T23:35:00.864Z,-8.70
2018-02-27T23:37:27.079Z,-8.50
2018-02-27T23:39:53.308Z,-8.40
2018-02-27T23:42:19.541Z,-8.20
2018-02-27T23:44:45.739Z,-8.20
2018-02-27T23:47:11.972Z,-8.40
2018-02-27T23:49:38.740Z,-8.50
2018-02-27T23:52:04.974Z,-8.40
2018-02-27T23:54:31.167Z,-8.20
2018-02-27T23:56:57.653Z,-8.20
2018-02-27T23:59:24.277Z,-8.10
